createdAt,value
2023-02-11T00:00:41.009Z,19.77
2023-02-11T00:03:09.268Z,19.00
2023-02-11T00:05:37.096Z,19.03
2023-02-11T00:08:05.093Z,18.30
2023-02-11T00:10:32.865Z,19.63
2023-02-11T00:13:00.645Z,19.63
2023-02-11T00:15:29.822Z,20.80
2023-02-11T00:17:57.608Z,19.10
2023-02-11T00:20:25.394Z,20.67
2023-02-11T00:22:53.179Z,19.27
2023-02-11T00:25:21.165Z,19.50
2023-02-11T00:27:48.969Z,20.53
2023-02-11T00:30:16.756Z,19.73
2023-02-11T00:32:45.916Z,20.67
2023-02-11T00:35:13.767Z,21.03
2023-02-11T00:37:41.699Z,20.17
2023-02-11T00:40:13.160Z,19.60
2023-02-11T00:42:41.017Z,19.00
2023-02-11T00:45:09.981Z,19.10
2023-02-11T00:47:37.974Z,19.90
2023-02-11T00:50:08.294Z,21.00
2023-02-11T00:52:36.365Z,20.53
2023-02-11T00:55:04.387Z,18.53
2023-02-11T00:57:33.522Z,18.97
2023-02-11T01:00:01.218Z,20.27
2023-02-11T01:02:28.975Z,19.03
2023-02-11T01:04:56.805Z,18.03
2023-02-11T01:07:25.993Z,17.73
2023-02-11T01:09:53.809Z,18.63
2023-02-11T01:12:21.755Z,21.87
2023-02-11T01:14:49.754Z,20.40
2023-02-11T01:17:19.602Z,20.30
2023-02-11T01:19:51.015Z,19.87
2023-02-11T01:22:19.189Z,19.87
2023-02-11T01:24:49.660Z,18.90
2023-02-11T01:27:17.393Z,19.07
2023-02-11T01:29:45.769Z,20.43
2023-02-11T01:32:14.282Z,19.90
2023-02-11T01:34:42.102Z,17.60
2023-02-11T01:37:09.929Z,18.57
2023-02-11T01:39:37.760Z,18.77
2023-02-11T01:42:08.132Z,19.37
2023-02-11T01:44:38.067Z,18.33
2023-02-11T01:47:06.464Z,20.83
2023-02-11T01:49:37.524Z,17.97
2023-02-11T01:52:11.123Z,20.03
2023-02-11T01:55:01.117Z,19.00
2023-02-11T01:57:34.805Z,19.10
2023-02-11T02:00:11.258Z,19.67
2023-02-11T02:02:51.429Z,19.87
2023-02-11T02:05:25.813Z,19.03
2023-02-11T02:08:01.378Z,18.40
2023-02-11T02:10:30.131Z,19.50
2023-02-11T02:12:59.425Z,18.87
2023-02-11T02:15:30.601Z,20.27
2023-02-11T02:18:02.324Z,19.37
2023-02-11T02:21:14.649Z,19.70
2023-02-11T02:24:21.501Z,19.37
2023-02-11T02:27:14.314Z,19.67
2023-02-11T02:30:16.819Z,18.80
2023-02-11T02:33:20.538Z,19.93
2023-02-11T02:35:59.495Z,20.40
2023-02-11T02:38:32.974Z,20.13
2023-02-11T02:41:05.161Z,20.40
2023-02-11T02:43:34.870Z,20.83
2023-02-11T02:46:19.654Z,20.30
2023-02-11T02:48:51.049Z,19.30
2023-02-11T02:51:36.980Z,18.97
2023-02-11T02:54:30.521Z,20.13
2023-02-11T02:57:10.961Z,19.47
2023-02-11T02:59:49.808Z,20.70
2023-02-11T03:02:25.325Z,20.97
2023-02-11T03:05:02.639Z,21.33
2023-02-11T03:07:38.736Z,20.80
2023-02-11T03:10:12.116Z,20.03
2023-02-11T03:12:41.977Z,21.37
2023-02-11T03:15:13.012Z,22.40
2023-02-11T03:17:43.724Z,20.77
2023-02-11T03:20:16.911Z,19.40
2023-02-11T03:22:51.880Z,20.17
2023-02-11T03:25:22.138Z,19.40
2023-02-11T03:27:55.212Z,20.00
2023-02-11T03:30:29.468Z,18.97
2023-02-11T03:33:01.401Z,19.47
2023-02-11T03:35:37.650Z,20.83
2023-02-11T03:38:08.500Z,21.00
2023-02-11T03:40:39.254Z,21.17
2023-02-11T03:43:11.066Z,21.37
2023-02-11T03:45:40.108Z,19.43
2023-02-11T03:48:21.409Z,20.80
2023-02-11T03:50:52.737Z,19.93
2023-02-11T03:53:23.327Z,21.17
2023-02-11T03:55:53.820Z,19.50
2023-02-11T03:58:21.947Z,19.90
2023-02-11T04:00:49.853Z,21.70
2023-02-11T04:03:17.754Z,19.27
2023-02-11T04:05:45.944Z,20.20
2023-02-11T04:08:15.130Z,20.33
2023-02-11T04:10:42.926Z,19.70
2023-02-11T04:13:10.690Z,20.77
2023-02-11T04:15:38.598Z,20.17
2023-02-11T04:18:06.703Z,19.70
2023-02-11T04:20:34.512Z,20.70
2023-02-11T04:23:02.307Z,18.77
2023-02-11T04:25:31.606Z,19.03
2023-02-11T04:27:59.410Z,18.77
2023-02-11T04:30:27.281Z,20.27
2023-02-11T04:32:55.226Z,19.40
2023-02-11T04:35:23.051Z,20.10
2023-02-11T04:37:50.854Z,20.53
2023-02-11T04:40:18.804Z,19.33
2023-02-11T04:42:48.070Z,20.40
2023-02-11T04:45:16.268Z,19.77
2023-02-11T04:47:44.026Z,19.83
2023-02-11T04:50:11.862Z,19.40
2023-02-11T04:52:39.707Z,20.00
2023-02-11T04:55:08.065Z,19.27
2023-02-11T04:57:35.813Z,19.60
2023-02-11T05:00:05.128Z,20.43
2023-02-11T05:02:33.203Z,20.37
2023-02-11T05:05:00.937Z,21.10
2023-02-11T05:07:29.347Z,19.20
2023-02-11T05:09:57.106Z,20.27
2023-02-11T05:12:24.944Z,19.97
2023-02-11T05:14:52.707Z,21.40
2023-02-11T05:17:21.793Z,20.87
2023-02-11T05:19:49.572Z,20.83
2023-02-11T05:22:17.344Z,20.80
2023-02-11T05:24:45.173Z,20.27
2023-02-11T05:27:12.942Z,20.67
2023-02-11T05:29:40.904Z,20.67
2023-02-11T05:32:09.030Z,20.30
2023-02-11T05:34:38.186Z,20.87
2023-02-11T05:37:06.111Z,20.53
2023-02-11T05:39:33.917Z,19.67
2023-02-11T05:42:01.682Z,19.67
2023-02-11T05:44:29.443Z,20.87
2023-02-11T05:46:57.248Z,20.50
2023-02-11T05:49:25.119Z,20.67
2023-02-11T05:51:54.287Z,19.97
2023-02-11T05:54:22.339Z,19.33
2023-02-11T05:56:50.135Z,20.17
2023-02-11T05:59:17.935Z,22.83
2023-02-11T06:01:45.868Z,21.10
2023-02-11T06:04:13.687Z,19.43
2023-02-11T06:06:41.521Z,19.63
2023-02-11T06:09:11.784Z,18.83
2023-02-11T06:11:39.706Z,18.90
2023-02-11T06:14:07.546Z,20.27
2023-02-11T06:16:35.320Z,20.50
2023-02-11T06:19:03.393Z,18.47
2023-02-11T06:21:42.985Z,18.40
2023-02-11T06:24:13.140Z,18.37
2023-02-11T06:26:41.128Z,25.90
2023-02-11T06:29:09.182Z,24.17
2023-02-11T06:31:38.826Z,20.77
2023-02-11T06:34:06.954Z,20.10
2023-02-11T06:36:34.780Z,19.20
2023-02-11T06:39:02.580Z,18.90
2023-02-11T06:41:31.954Z,18.70
2023-02-11T06:43:59.863Z,18.10
2023-02-11T06:46:27.628Z,18.17
2023-02-11T06:48:55.384Z,17.80
2023-02-11T06:51:23.212Z,16.97
2023-02-11T06:53:51.029Z,19.87
2023-02-11T06:56:20.800Z,19.10
2023-02-11T06:58:54.558Z,20.13
2023-02-11T07:01:22.946Z,19.47
2023-02-11T07:03:51.791Z,18.83
2023-02-11T07:06:22.288Z,19.63
2023-02-11T07:08:50.521Z,21.00
2023-02-11T07:11:20.502Z,19.87
2023-02-11T07:13:49.622Z,19.83
2023-02-11T07:16:18.644Z,22.03
2023-02-11T07:18:47.988Z,21.80
2023-02-11T07:21:18.294Z,20.93
2023-02-11T07:23:46.302Z,20.57
2023-02-11T07:26:16.880Z,19.47
2023-02-11T07:28:44.976Z,18.90
2023-02-11T07:31:16.143Z,19.00
2023-02-11T07:33:45.770Z,18.97
2023-02-11T07:36:14.822Z,20.07
2023-02-11T07:38:42.976Z,21.40
2023-02-11T07:41:13.366Z,22.00
2023-02-11T07:43:41.882Z,22.13
2023-02-11T07:46:14.847Z,22.23
2023-02-11T07:48:44.065Z,20.30
2023-02-11T07:51:14.411Z,22.97
2023-02-11T07:53:42.584Z,19.43
2023-02-11T07:56:11.853Z,18.33
2023-02-11T07:58:42.053Z,18.67
2023-02-11T08:01:12.463Z,18.13
2023-02-11T08:03:41.940Z,17.70
2023-02-11T08:06:13.193Z,26.63
2023-02-11T08:08:41.587Z,21.83
2023-02-11T08:11:10.771Z,20.17
2023-02-11T08:13:39.068Z,18.50
2023-02-11T08:16:08.327Z,18.63
2023-02-11T08:18:36.869Z,19.13
2023-02-11T08:21:06.777Z,18.57
2023-02-11T08:23:37.415Z,18.90
2023-02-11T08:26:05.702Z,17.10
2023-02-11T08:28:37.919Z,18.80
2023-02-11T08:31:10.413Z,16.90
2023-02-11T08:33:40.376Z,15.93
2023-02-11T08:36:10.572Z,16.40
2023-02-11T08:38:39.900Z,14.83
2023-02-11T08:41:09.479Z,22.83
2023-02-11T08:43:41.570Z,18.33
2023-02-11T08:46:10.207Z,17.60
2023-02-11T08:48:37.991Z,16.13
2023-02-11T08:51:09.354Z,16.77
2023-02-11T08:53:37.412Z,15.80
2023-02-11T08:56:07.203Z,14.00
2023-02-11T08:58:35.396Z,14.43
2023-02-11T09:01:03.298Z,15.17
2023-02-11T09:03:32.001Z,15.90
2023-02-11T09:05:59.719Z,15.77
2023-02-11T09:08:27.583Z,15.50
2023-02-11T09:10:57.644Z,15.10
2023-02-11T09:13:26.817Z,16.00
2023-02-11T09:15:54.563Z,16.13
2023-02-11T09:18:22.433Z,15.73
2023-02-11T09:20:50.607Z,16.03
2023-02-11T09:23:19.094Z,16.10
2023-02-11T09:25:46.846Z,17.80
2023-02-11T09:28:14.641Z,16.10
2023-02-11T09:30:43.889Z,18.17
2023-02-11T09:33:11.741Z,17.13
2023-02-11T09:35:39.535Z,18.10
2023-02-11T09:38:07.286Z,16.90
2023-02-11T09:40:35.202Z,19.00
2023-02-11T09:43:09.343Z,21.37
2023-02-11T09:45:37.150Z,18.17
2023-02-11T09:48:15.549Z,18.80
2023-02-11T09:50:47.696Z,19.00
2023-02-11T09:53:21.276Z,17.23
2023-02-11T09:55:55.643Z,21.13
2023-02-11T09:58:27.881Z,17.87
2023-02-11T10:01:04.102Z,17.10
2023-02-11T10:03:51.275Z,35.57
2023-02-11T10:06:37.588Z,16.77
2023-02-11T10:09:19.103Z,15.93
2023-02-11T10:11:54.312Z,15.30
2023-02-11T10:14:45.041Z,14.83
2023-02-11T10:17:23.910Z,15.07
2023-02-11T10:20:09.254Z,15.50
2023-02-11T10:22:42.532Z,15.00
2023-02-11T10:25:18.851Z,15.17
2023-02-11T10:27:47.045Z,16.17
2023-02-11T10:30:24.605Z,15.53
2023-02-11T10:32:58.674Z,17.97
2023-02-11T10:35:28.255Z,15.53
2023-02-11T10:37:56.822Z,14.47
2023-02-11T10:40:26.086Z,16.47
2023-02-11T10:42:56.339Z,17.00
2023-02-11T10:45:31.478Z,18.70
2023-02-11T10:48:00.183Z,13.70
2023-02-11T10:50:33.488Z,14.27
2023-02-11T10:53:14.485Z,14.57
2023-02-11T10:55:58.390Z,15.53
2023-02-11T10:58:29.319Z,15.37
2023-02-11T11:01:01.346Z,15.90
2023-02-11T11:03:33.120Z,14.77
2023-02-11T11:06:05.221Z,15.83
2023-02-11T11:08:42.764Z,14.53
2023-02-11T11:11:12.273Z,16.00
2023-02-11T11:13:41.777Z,14.20
2023-02-11T11:16:19.245Z,13.80
2023-02-11T11:18:48.826Z,13.57
2023-02-11T11:21:21.124Z,14.50
2023-02-11T11:23:52.098Z,11.87
2023-02-11T11:26:20.189Z,11.93
2023-02-11T11:28:58.789Z,11.63
2023-02-11T11:31:31.082Z,11.47
2023-02-11T11:34:01.758Z,13.53
2023-02-11T11:36:37.894Z,12.30
2023-02-11T11:39:20.965Z,13.07
2023-02-11T11:41:54.600Z,13.70
2023-02-11T11:44:31.994Z,14.00
2023-02-11T11:47:23.023Z,12.07
2023-02-11T11:49:57.698Z,12.20
2023-02-11T11:52:37.876Z,11.97
2023-02-11T11:55:12.910Z,11.20
2023-02-11T11:57:41.085Z,11.53
2023-02-11T12:00:16.756Z,11.97
2023-02-11T12:03:25.146Z,10.77
2023-02-11T12:06:07.966Z,11.73
2023-02-11T12:08:45.627Z,10.83
2023-02-11T12:11:22.191Z,10.00
2023-02-11T12:14:11.126Z,9.47
2023-02-11T12:16:47.918Z,9.07
2023-02-11T12:19:49.249Z,9.43
2023-02-11T12:22:27.893Z,9.57
2023-02-11T12:25:10.775Z,9.30
2023-02-11T12:27:49.812Z,8.87
2023-02-11T12:30:35.295Z,9.37
2023-02-11T12:33:11.657Z,11.07
2023-02-11T12:35:48.644Z,9.03
2023-02-11T12:38:32.914Z,13.53
2023-02-11T12:41:16.150Z,13.47
2023-02-11T12:43:45.104Z,10.40
2023-02-11T12:46:32.227Z,9.70
2023-02-11T12:49:31.475Z,8.60
2023-02-11T12:52:16.342Z,11.70
2023-02-11T12:54:50.111Z,9.20
2023-02-11T12:57:24.248Z,12.30
2023-02-11T12:59:58.965Z,8.73
2023-02-11T13:02:35.876Z,8.93
2023-02-11T13:05:14.466Z,8.97
2023-02-11T13:07:46.104Z,9.57
2023-02-11T13:10:26.086Z,8.30
2023-02-11T13:13:14.337Z,8.47
2023-02-11T13:15:44.749Z,10.10
2023-02-11T13:18:24.269Z,9.37
2023-02-11T13:20:59.369Z,8.73
2023-02-11T13:23:38.348Z,8.90
2023-02-11T13:26:15.480Z,8.67
2023-02-11T13:28:50.345Z,9.03
2023-02-11T13:31:20.536Z,10.83
2023-02-11T13:33:49.794Z,12.43
2023-02-11T13:36:20.670Z,9.80
2023-02-11T13:39:21.190Z,9.77
2023-02-11T13:41:52.549Z,10.67
2023-02-11T13:44:37.922Z,9.80
2023-02-11T13:59:00.755Z,10.13
2023-02-11T14:11:06.189Z,10.07
2023-02-11T14:14:20.072Z,9.93
2023-02-11T14:29:09.560Z,11.63
2023-02-11T14:31:43.832Z,10.97
2023-02-11T14:34:34.581Z,11.20
2023-02-11T14:37:15.658Z,11.23
2023-02-11T14:39:58.836Z,11.03
2023-02-11T14:42:30.871Z,11.93
2023-02-11T14:45:04.462Z,11.60
2023-02-11T14:47:42.288Z,11.77
2023-02-11T14:50:19.199Z,11.07
2023-02-11T14:52:47.892Z,11.03
2023-02-11T14:55:26.564Z,11.20
2023-02-11T14:58:12.617Z,10.30
2023-02-11T15:00:50.588Z,10.90
2023-02-11T15:03:37.302Z,11.27
2023-02-11T15:06:08.814Z,10.60
2023-02-11T15:08:38.737Z,10.10
2023-02-11T15:11:13.032Z,10.07
2023-02-11T15:13:47.331Z,12.97
2023-02-11T15:16:19.782Z,11.90
2023-02-11T15:18:52.428Z,11.30
2023-02-11T15:21:25.649Z,10.53
2023-02-11T15:23:58.585Z,10.93
2023-02-11T15:26:31.899Z,10.77
2023-02-11T15:29:04.197Z,11.40
2023-02-11T15:31:35.177Z,10.77
2023-02-11T15:34:09.808Z,11.40
2023-02-11T15:36:39.066Z,10.97
2023-02-11T15:39:29.822Z,10.53
2023-02-11T15:41:57.569Z,10.80
2023-02-11T15:44:30.053Z,10.53
2023-02-11T15:46:58.416Z,10.87
2023-02-11T15:49:28.084Z,11.33
2023-02-11T15:51:57.941Z,10.40
2023-02-11T15:54:29.414Z,11.40
2023-02-11T15:57:03.543Z,11.70
2023-02-11T15:59:37.848Z,11.33
2023-02-11T16:02:11.542Z,10.83
2023-02-11T16:04:43.260Z,11.03
2023-02-11T16:07:40.125Z,11.37
2023-02-11T16:10:18.799Z,11.00
2023-02-11T16:12:52.994Z,11.33
2023-02-11T16:15:47.976Z,11.47
2023-02-11T16:18:37.386Z,12.80
2023-02-11T16:21:20.515Z,11.67
2023-02-11T16:23:53.994Z,11.03
2023-02-11T16:26:35.215Z,11.17
2023-02-11T16:29:10.885Z,11.10
2023-02-11T16:31:45.151Z,11.03
2023-02-11T16:34:20.431Z,12.13
2023-02-11T16:36:57.851Z,11.07
2023-02-11T16:39:25.709Z,11.43
2023-02-11T16:41:55.932Z,11.40
2023-02-11T16:44:23.941Z,10.97
2023-02-11T16:46:53.040Z,11.13
2023-02-11T16:49:24.915Z,11.50
2023-02-11T16:51:57.314Z,10.73
2023-02-11T16:54:25.283Z,10.67
2023-02-11T16:56:53.022Z,10.50
2023-02-11T16:59:24.290Z,10.43
2023-02-11T17:02:02.265Z,13.13
2023-02-11T17:04:33.511Z,12.60
2023-02-11T17:07:07.451Z,12.10
2023-02-11T17:09:35.960Z,11.10
2023-02-11T17:12:06.385Z,11.00
2023-02-11T17:14:34.764Z,10.30
2023-02-11T17:17:05.620Z,11.30
2023-02-11T17:27:06.032Z,12.57
2023-02-11T17:29:36.394Z,11.10
2023-02-11T17:32:07.535Z,10.93
2023-02-11T17:34:36.433Z,11.23
2023-02-11T17:37:08.977Z,11.83
2023-02-11T17:39:37.078Z,12.07
2023-02-11T17:42:06.893Z,12.47
2023-02-11T17:44:42.611Z,11.97
2023-02-11T17:47:10.429Z,11.20
2023-02-11T17:49:38.434Z,11.07
2023-02-11T17:52:06.270Z,13.60
2023-02-11T17:54:34.579Z,14.07
2023-02-11T17:57:02.753Z,13.70
2023-02-11T17:59:36.272Z,12.07
2023-02-11T18:02:05.401Z,11.37
2023-02-11T18:04:33.378Z,11.27
2023-02-11T18:07:03.454Z,10.57
2023-02-11T18:09:31.439Z,10.73
2023-02-11T18:12:01.538Z,12.10
2023-02-11T18:14:31.145Z,13.07
2023-02-11T18:17:05.324Z,14.10
2023-02-11T18:19:35.900Z,15.47
2023-02-11T18:22:04.316Z,15.23
2023-02-11T18:24:36.739Z,16.70
2023-02-11T18:27:04.701Z,17.57
2023-02-11T18:29:41.111Z,16.53
2023-02-11T18:32:12.481Z,16.83
2023-02-11T18:34:42.016Z,16.50
2023-02-11T18:37:10.340Z,15.13
2023-02-11T18:39:38.369Z,13.13
2023-02-11T18:42:06.347Z,12.47
2023-02-11T18:44:37.604Z,11.83
2023-02-11T18:47:05.458Z,12.20
2023-02-11T18:49:36.161Z,12.97
2023-02-11T18:52:05.369Z,12.37
2023-02-11T18:54:34.857Z,11.07
2023-02-11T18:57:02.597Z,11.93
2023-02-11T18:59:33.471Z,10.93
2023-02-11T19:02:01.225Z,11.73
2023-02-11T19:04:29.030Z,11.33
2023-02-11T19:07:03.043Z,11.77
2023-02-11T19:09:31.146Z,11.00
2023-02-11T19:12:03.428Z,10.97
2023-02-11T19:14:39.849Z,10.63
2023-02-11T19:17:12.271Z,10.27
2023-02-11T19:23:38.489Z,11.17
2023-02-11T19:26:06.893Z,13.70
2023-02-11T19:28:37.058Z,13.23
2023-02-11T19:31:10.113Z,12.13
2023-02-11T19:33:38.111Z,11.57
2023-02-11T19:36:07.980Z,12.40
2023-02-11T19:38:37.482Z,12.33
2023-02-11T19:41:06.255Z,12.83
2023-02-11T19:43:34.220Z,12.43
2023-02-11T19:46:04.093Z,15.67
2023-02-11T19:48:32.030Z,14.30
2023-02-11T19:51:00.312Z,12.37
2023-02-11T19:53:28.272Z,19.57
2023-02-11T19:56:03.816Z,15.23
2023-02-11T19:58:32.251Z,12.90
2023-02-11T20:01:06.939Z,14.00
2023-02-11T20:03:35.291Z,13.83
2023-02-11T20:06:06.671Z,13.43
2023-02-11T20:08:34.824Z,13.57
2023-02-11T20:11:08.771Z,14.10
2023-02-11T20:13:37.800Z,14.57
2023-02-11T20:16:08.127Z,12.73
2023-02-11T20:18:37.378Z,13.07
2023-02-11T20:21:09.251Z,12.37
2023-02-11T20:23:38.278Z,15.80
2023-02-11T20:26:10.302Z,13.40
2023-02-11T20:28:38.548Z,14.03
2023-02-11T20:31:16.633Z,13.07
2023-02-11T20:33:52.288Z,13.83
